createdAt,value
2019-03-31T00:01:12.142Z,6.59
2019-03-31T00:04:02.066Z,6.62
2019-03-31T00:06:51.732Z,6.62
2019-03-31T00:09:42.012Z,6.66
2019-03-31T00:12:13.068Z,6.59
2019-03-31T00:15:03.516Z,6.56
2019-03-31T00:17:34.519Z,6.54
2019-03-31T00:20:06.047Z,6.48
2019-03-31T00:22:55.842Z,6.48
2019-03-31T00:25:27.325Z,6.43
2019-03-31T00:27:58.649Z,6.42
2019-03-31T00:30:48.535Z,6.35
2019-03-31T00:33:19.636Z,6.36
2019-03-31T00:35:50.789Z,6.24
2019-03-31T00:38:22.612Z,6.18
2019-03-31T00:40:55.097Z,6.20
2019-03-31T00:43:26.826Z,6.10
2019-03-31T00:45:58.001Z,6.12
2019-03-31T00:48:31.375Z,6.08
2019-03-31T00:51:03.378Z,6.06
2019-03-31T00:53:53.635Z,6.11
2019-03-31T00:56:43.716Z,6.17
2019-03-31T00:59:15.344Z,6.06
2019-03-31T01:02:11.158Z,6.05
2019-03-31T01:05:01.313Z,6.09
2019-03-31T01:07:51.357Z,5.39
2019-03-31T01:10:22.773Z,5.94
2019-03-31T01:12:54.223Z,5.90
2019-03-31T01:15:45.527Z,5.90
2019-03-31T01:18:16.900Z,5.84
2019-03-31T01:20:49.005Z,5.77
2019-03-31T01:23:39.070Z,5.79
2019-03-31T01:26:10.295Z,5.65
2019-03-31T01:28:41.864Z,5.57
2019-03-31T01:31:13.414Z,5.54
2019-03-31T01:34:03.290Z,5.53
2019-03-31T01:36:34.443Z,5.47
2019-03-31T01:39:07.868Z,5.42
2019-03-31T01:41:57.624Z,5.47
2019-03-31T01:44:47.300Z,5.45
2019-03-31T01:47:37.226Z,5.48
2019-03-31T01:50:11.684Z,5.47
2019-03-31T01:52:43.195Z,5.31
2019-03-31T01:55:14.224Z,5.27
2019-03-31T01:58:33.463Z,5.29
2019-03-31T02:00:47.891Z,5.25
2019-03-31T02:03:38.126Z,5.18
2019-03-31T02:06:09.209Z,5.26
2019-03-31T02:08:59.199Z,5.15
2019-03-31T02:11:30.327Z,4.23
2019-03-31T02:14:19.967Z,5.12
2019-03-31T02:16:51.083Z,5.10
2019-03-31T02:19:40.758Z,5.03
2019-03-31T02:22:11.809Z,5.01
2019-03-31T02:24:43.949Z,5.02
2019-03-31T02:27:33.924Z,4.99
2019-03-31T02:30:05.237Z,5.00
2019-03-31T02:32:37.211Z,4.99
2019-03-31T02:35:08.780Z,4.90
2019-03-31T02:37:40.584Z,4.87
2019-03-31T02:40:30.410Z,4.87
2019-03-31T02:43:20.397Z,4.81
2019-03-31T02:45:51.410Z,4.75
2019-03-31T02:48:42.125Z,4.73
2019-03-31T02:51:34.154Z,4.71
2019-03-31T02:54:23.999Z,4.69
2019-03-31T02:57:14.039Z,4.62
2019-03-31T03:00:03.784Z,4.65
2019-03-31T03:02:54.110Z,4.63
2019-03-31T03:05:48.362Z,4.58
2019-03-31T03:08:24.237Z,4.58
2019-03-31T03:11:18.119Z,4.64
2019-03-31T03:13:52.670Z,4.53
2019-03-31T03:16:42.865Z,4.55
2019-03-31T03:19:32.882Z,4.50
2019-03-31T03:22:43.123Z,4.45
2019-03-31T03:25:24.478Z,4.50
2019-03-31T03:27:56.603Z,4.45
2019-03-31T03:33:23.572Z,4.43
2019-03-31T03:36:14.579Z,4.43
2019-03-31T03:39:24.890Z,4.45
2019-03-31T03:42:14.934Z,4.41
2019-03-31T03:45:04.631Z,4.31
2019-03-31T03:47:55.315Z,4.34
2019-03-31T03:50:26.472Z,4.26
2019-03-31T03:52:57.777Z,4.24
2019-03-31T03:55:29.716Z,4.25
2019-03-31T03:58:01.739Z,4.15
2019-03-31T04:00:33.250Z,4.24
2019-03-31T04:03:04.728Z,4.14
2019-03-31T04:05:35.715Z,4.10
2019-03-31T04:08:06.664Z,4.19
2019-03-31T04:10:55.581Z,4.13
2019-03-31T04:13:26.859Z,4.08
2019-03-31T04:16:16.894Z,4.04
2019-03-31T04:19:06.598Z,4.06
2019-03-31T04:21:56.282Z,4.02
2019-03-31T04:24:37.973Z,3.96
2019-03-31T04:27:09.494Z,3.93
2019-03-31T04:29:40.532Z,3.87
2019-03-31T04:32:30.577Z,3.85
2019-03-31T04:35:01.735Z,3.83
2019-03-31T04:37:32.744Z,3.93
2019-03-31T04:40:23.099Z,3.95
2019-03-31T04:42:54.094Z,3.97
2019-03-31T04:45:47.556Z,3.95
2019-03-31T04:48:37.618Z,3.82
2019-03-31T04:51:09.249Z,3.76
2019-03-31T04:53:53.451Z,3.77
2019-03-31T04:56:32.462Z,3.77
2019-03-31T04:59:22.387Z,3.78
2019-03-31T05:02:12.226Z,3.73
2019-03-31T05:05:01.945Z,3.69
2019-03-31T05:07:33.103Z,3.67
2019-03-31T05:10:23.816Z,3.67
2019-03-31T05:13:13.494Z,3.65
2019-03-31T05:18:53.401Z,3.59
2019-03-31T05:21:24.867Z,3.57
2019-03-31T05:23:57.261Z,3.56
2019-03-31T05:29:20.989Z,3.59
2019-03-31T05:32:11.154Z,3.58
2019-03-31T05:35:00.840Z,3.59
2019-03-31T05:37:51.265Z,3.63
2019-03-31T05:40:37.784Z,3.64
2019-03-31T05:43:10.245Z,3.66
2019-03-31T05:45:44.151Z,3.73
2019-03-31T05:48:16.008Z,3.77
2019-03-31T05:51:06.063Z,3.79
2019-03-31T05:54:15.270Z,3.78
2019-03-31T05:56:48.301Z,3.84
2019-03-31T05:59:20.363Z,3.83
2019-03-31T06:01:51.749Z,3.91
2019-03-31T06:04:32.966Z,4.00
2019-03-31T06:07:14.975Z,4.22
2019-03-31T06:09:45.998Z,4.32
2019-03-31T06:12:36.182Z,4.42
2019-03-31T06:15:25.980Z,4.42
2019-03-31T06:18:16.618Z,4.52
2019-03-31T06:21:06.258Z,4.72
2019-03-31T06:23:37.494Z,4.81
2019-03-31T06:26:19.658Z,4.93
2019-03-31T06:28:51.059Z,5.03
2019-03-31T06:31:40.709Z,5.10
2019-03-31T06:34:11.897Z,5.26
2019-03-31T06:37:01.895Z,5.59
2019-03-31T06:39:34.375Z,5.82
2019-03-31T06:42:24.559Z,5.99
2019-03-31T06:45:14.524Z,6.13
2019-03-31T06:48:04.247Z,6.29
2019-03-31T06:50:35.264Z,6.41
2019-03-31T06:53:24.961Z,6.57
2019-03-31T06:55:55.994Z,6.70
2019-03-31T06:58:45.947Z,6.80
2019-03-31T07:01:16.929Z,6.91
2019-03-31T07:03:47.994Z,7.03
2019-03-31T07:06:19.095Z,7.12
2019-03-31T07:09:08.769Z,7.21
2019-03-31T07:11:58.468Z,7.36
2019-03-31T07:14:29.545Z,6.74
2019-03-31T07:17:00.915Z,7.70
2019-03-31T07:19:31.976Z,7.89
2019-03-31T07:22:02.993Z,8.11
2019-03-31T07:24:52.928Z,8.31
2019-03-31T07:27:23.959Z,8.54
2019-03-31T07:30:33.981Z,8.78
2019-03-31T07:33:24.073Z,9.02
2019-03-31T07:35:55.100Z,9.31
2019-03-31T07:38:45.066Z,9.57
2019-03-31T07:41:16.154Z,9.80
2019-03-31T07:44:06.171Z,10.31
2019-03-31T07:46:55.950Z,11.06
2019-03-31T07:50:03.140Z,11.62
2019-03-31T07:52:40.530Z,12.92
2019-03-31T08:01:01.919Z,15.06
2019-03-31T08:03:43.865Z,15.63
2019-03-31T08:06:25.807Z,15.03
2019-03-31T08:08:56.940Z,16.41
2019-03-31T08:11:28.061Z,16.86
2019-03-31T08:14:18.259Z,17.34
2019-03-31T08:17:08.069Z,17.73
2019-03-31T08:19:39.516Z,17.87
2019-03-31T08:22:29.383Z,18.95
2019-03-31T08:25:19.591Z,19.55
2019-03-31T08:28:01.115Z,18.97
2019-03-31T08:30:32.308Z,19.00
2019-03-31T08:33:14.271Z,18.95
2019-03-31T08:35:55.164Z,19.00
2019-03-31T08:38:45.367Z,19.88
2019-03-31T08:44:25.468Z,21.27
2019-03-31T08:47:15.605Z,21.34
2019-03-31T08:49:46.731Z,21.44
2019-03-31T08:52:17.915Z,21.72
2019-03-31T08:54:48.991Z,21.72
2019-03-31T08:57:39.204Z,22.02
2019-03-31T09:03:32.920Z,22.39
2019-03-31T09:06:04.033Z,22.27
2019-03-31T09:08:54.088Z,22.65
2019-03-31T09:11:43.935Z,23.64
2019-03-31T09:14:33.964Z,23.32
2019-03-31T09:17:05.458Z,22.96
2019-03-31T09:23:07.710Z,23.27
2019-03-31T09:25:38.719Z,24.78
2019-03-31T09:28:12.035Z,25.10
2019-03-31T09:31:02.438Z,24.36
2019-03-31T09:33:33.610Z,23.90
2019-03-31T09:36:23.965Z,24.80
2019-03-31T09:38:57.280Z,25.26
2019-03-31T09:41:28.275Z,25.06
2019-03-31T09:46:57.409Z,24.59
2019-03-31T09:49:47.444Z,24.77
2019-03-31T09:52:37.336Z,24.12
2019-03-31T09:57:46.882Z,23.07
2019-03-31T10:00:54.431Z,22.82
2019-03-31T10:03:27.104Z,22.37
2019-03-31T10:06:09.901Z,22.36
2019-03-31T10:08:31.407Z,22.60
2019-03-31T10:11:21.119Z,22.82
2019-03-31T10:14:11.056Z,22.99
2019-03-31T10:17:11.949Z,23.20
2019-03-31T10:19:43.944Z,23.64
2019-03-31T10:22:33.676Z,24.09
2019-03-31T10:25:23.688Z,24.40
2019-03-31T10:27:54.982Z,24.47
2019-03-31T10:30:53.880Z,24.13
2019-03-31T10:33:43.617Z,24.08
2019-03-31T10:36:14.675Z,24.35
2019-03-31T10:39:25.009Z,24.06
2019-03-31T10:42:15.246Z,23.33
2019-03-31T10:44:46.486Z,23.17
2019-03-31T10:47:19.828Z,22.77
2019-03-31T10:49:51.080Z,22.84
2019-03-31T10:52:22.245Z,22.15
2019-03-31T10:55:35.013Z,21.68
2019-03-31T10:58:16.626Z,21.31
2019-03-31T11:01:04.053Z,21.38
2019-03-31T11:03:35.298Z,21.31
2019-03-31T11:06:06.331Z,21.09
2019-03-31T11:08:37.411Z,21.38
2019-03-31T11:11:27.748Z,21.44
2019-03-31T11:14:17.463Z,21.47
2019-03-31T11:16:48.937Z,21.43
2019-03-31T11:19:24.212Z,21.10
2019-03-31T11:24:55.864Z,19.96
2019-03-31T11:28:04.275Z,19.53
2019-03-31T11:30:45.693Z,19.54
2019-03-31T11:33:16.837Z,19.83
2019-03-31T11:35:47.840Z,19.88
2019-03-31T11:38:19.208Z,20.01
2019-03-31T11:41:08.952Z,19.66
2019-03-31T11:43:42.501Z,19.57
2019-03-31T11:46:14.604Z,19.81
2019-03-31T11:49:04.600Z,19.86
2019-03-31T11:51:54.356Z,19.98
2019-03-31T11:55:04.662Z,19.84
2019-03-31T11:57:35.912Z,19.70
2019-03-31T12:00:29.571Z,19.81
2019-03-31T12:03:07.101Z,20.04
2019-03-31T12:05:38.455Z,20.03
2019-03-31T12:08:09.583Z,20.17
2019-03-31T12:10:59.366Z,20.28
2019-03-31T12:13:49.228Z,20.25
2019-03-31T12:17:00.542Z,20.22
2019-03-31T12:19:31.627Z,19.74
2019-03-31T12:22:21.345Z,20.37
2019-03-31T12:24:52.387Z,20.32
2019-03-31T12:27:23.940Z,20.42
2019-03-31T12:30:13.753Z,20.51
2019-03-31T12:32:45.033Z,20.36
2019-03-31T12:35:18.534Z,20.57
2019-03-31T12:38:08.278Z,20.46
2019-03-31T12:40:40.880Z,20.68
2019-03-31T12:43:30.606Z,20.45
2019-03-31T12:46:01.694Z,20.16
2019-03-31T12:48:32.750Z,20.42
2019-03-31T12:51:22.499Z,20.68
2019-03-31T12:54:12.177Z,20.92
2019-03-31T12:56:43.216Z,21.54
2019-03-31T12:59:34.548Z,21.35
2019-03-31T13:02:05.890Z,21.15
2019-03-31T13:04:37.313Z,21.08
2019-03-31T13:07:08.834Z,21.21
2019-03-31T13:09:41.279Z,21.39
2019-03-31T13:12:30.943Z,21.68
2019-03-31T13:18:02.975Z,22.07
2019-03-31T13:20:36.637Z,22.31
2019-03-31T13:23:08.631Z,23.21
2019-03-31T13:28:49.087Z,22.28
2019-03-31T13:31:20.564Z,21.27
2019-03-31T13:33:52.043Z,20.67
2019-03-31T13:36:42.214Z,20.70
2019-03-31T13:39:13.299Z,20.94
2019-03-31T13:41:47.159Z,21.30
2019-03-31T13:44:36.156Z,21.67
2019-03-31T13:47:26.009Z,21.72
2019-03-31T13:49:57.071Z,21.58
2019-03-31T13:55:19.949Z,21.96
2019-03-31T13:57:52.627Z,22.41
2019-03-31T14:00:43.137Z,23.10
2019-03-31T14:03:41.021Z,24.19
2019-03-31T14:06:14.235Z,26.43
2019-03-31T14:09:06.248Z,27.97
2019-03-31T14:11:38.311Z,28.22
2019-03-31T14:14:11.603Z,28.89
2019-03-31T14:16:42.649Z,29.18
2019-03-31T14:19:32.766Z,27.39
2019-03-31T14:22:03.837Z,28.55
2019-03-31T14:24:34.995Z,30.03
2019-03-31T14:27:24.661Z,30.35
2019-03-31T14:29:55.753Z,29.87
2019-03-31T14:32:26.996Z,29.00
2019-03-31T14:35:16.845Z,29.25
2019-03-31T14:38:06.673Z,28.62
2019-03-31T14:40:37.991Z,29.08
2019-03-31T14:43:17.996Z,30.26
2019-03-31T14:46:10.444Z,29.33
2019-03-31T14:48:41.500Z,28.68
2019-03-31T14:51:31.751Z,28.60
2019-03-31T14:54:21.539Z,28.36
2019-03-31T14:57:11.186Z,29.87
2019-03-31T14:59:42.215Z,30.19
2019-03-31T15:02:32.414Z,31.27
2019-03-31T15:05:03.411Z,31.06
2019-03-31T15:07:53.555Z,31.26
2019-03-31T15:10:24.589Z,31.65
2019-03-31T15:12:55.804Z,31.03
2019-03-31T15:15:46.245Z,31.01
2019-03-31T15:18:36.752Z,28.71
2019-03-31T15:21:09.266Z,27.31
2019-03-31T15:23:55.698Z,29.23
2019-03-31T15:26:48.410Z,29.23
2019-03-31T15:29:19.629Z,29.95
2019-03-31T15:32:10.561Z,30.36
2019-03-31T15:35:00.778Z,29.92
2019-03-31T15:37:31.918Z,29.00
2019-03-31T15:40:03.227Z,30.18
2019-03-31T15:42:37.559Z,29.79
2019-03-31T15:45:09.966Z,30.07
2019-03-31T15:48:00.263Z,29.69
2019-03-31T15:50:31.505Z,30.69
2019-03-31T15:53:03.030Z,30.16
2019-03-31T15:55:34.999Z,30.52
2019-03-31T15:58:07.014Z,30.13
2019-03-31T16:00:57.042Z,30.69
2019-03-31T16:03:28.227Z,30.44
2019-03-31T16:06:18.287Z,29.92
2019-03-31T16:09:22.311Z,29.84
2019-03-31T16:12:00.228Z,29.39
2019-03-31T16:14:31.175Z,28.47
2019-03-31T16:17:24.271Z,28.41
2019-03-31T16:20:00.365Z,28.12
2019-03-31T16:22:47.896Z,27.88
2019-03-31T16:25:14.572Z,26.41
2019-03-31T16:27:46.175Z,24.65
2019-03-31T16:30:19.665Z,23.39
2019-03-31T16:33:09.123Z,22.35
2019-03-31T16:35:39.902Z,21.43
2019-03-31T16:38:35.659Z,20.59
2019-03-31T16:41:06.197Z,20.02
2019-03-31T16:46:50.009Z,19.44
2019-03-31T16:49:21.008Z,19.17
2019-03-31T16:52:10.547Z,18.98
2019-03-31T16:54:41.793Z,18.79
2019-03-31T16:57:31.739Z,18.60
2019-03-31T17:00:03.546Z,18.49
2019-03-31T17:05:42.675Z,18.26
2019-03-31T17:08:32.936Z,18.14
2019-03-31T17:11:27.915Z,18.10
2019-03-31T17:14:17.620Z,17.97
2019-03-31T17:17:07.056Z,17.81
2019-03-31T17:19:56.591Z,17.72
2019-03-31T17:22:27.527Z,17.66
2019-03-31T17:24:58.012Z,17.64
2019-03-31T17:27:47.417Z,17.50
2019-03-31T17:30:18.638Z,17.45
2019-03-31T17:33:08.061Z,17.31
2019-03-31T17:35:38.622Z,17.26
2019-03-31T17:38:09.493Z,17.16
2019-03-31T17:40:41.259Z,17.11
2019-03-31T17:43:23.832Z,17.08
2019-03-31T17:46:05.444Z,16.33
2019-03-31T17:48:37.272Z,16.87
2019-03-31T17:54:19.852Z,16.67
2019-03-31T17:57:22.511Z,16.54
2019-03-31T17:59:41.657Z,16.43
2019-03-31T18:02:12.984Z,16.36
2019-03-31T18:05:02.661Z,16.22
2019-03-31T18:07:52.718Z,16.28
2019-03-31T18:10:42.214Z,16.07
2019-03-31T18:13:12.998Z,16.01
2019-03-31T18:15:57.421Z,15.91
2019-03-31T18:21:22.435Z,15.64
2019-03-31T18:29:23.272Z,15.15
2019-03-31T18:32:12.757Z,14.90
2019-03-31T18:35:02.771Z,14.70
2019-03-31T18:37:33.981Z,14.65
2019-03-31T18:40:07.243Z,14.77
2019-03-31T18:42:56.719Z,14.56
2019-03-31T18:45:47.389Z,14.56
2019-03-31T18:48:38.669Z,14.45
2019-03-31T18:51:28.237Z,14.20
2019-03-31T18:54:36.626Z,14.07
2019-03-31T18:57:46.294Z,13.96
2019-03-31T19:00:36.366Z,13.92
2019-03-31T19:03:27.789Z,13.80
2019-03-31T19:06:36.141Z,13.62
2019-03-31T19:09:35.025Z,13.40
2019-03-31T19:12:24.846Z,12.53
2019-03-31T19:15:15.097Z,13.17
2019-03-31T19:18:07.982Z,13.01
2019-03-31T19:21:10.536Z,12.89
2019-03-31T19:26:48.548Z,12.63
2019-03-31T19:29:53.700Z,12.57
2019-03-31T19:32:58.320Z,12.51
2019-03-31T19:35:51.516Z,12.70
2019-03-31T19:38:29.840Z,12.94
2019-03-31T19:41:38.148Z,12.78
2019-03-31T19:44:33.435Z,12.81
2019-03-31T19:47:12.672Z,12.74
2019-03-31T19:50:02.315Z,12.88
2019-03-31T19:53:15.133Z,12.79
2019-03-31T19:56:24.151Z,12.72
2019-03-31T19:59:16.274Z,12.81
2019-03-31T20:02:07.499Z,12.87
2019-03-31T20:04:57.445Z,12.90
2019-03-31T20:08:06.044Z,12.98
2019-03-31T20:11:09.418Z,12.82
2019-03-31T20:14:18.132Z,12.61
2019-03-31T20:17:22.515Z,12.43
2019-03-31T20:26:09.682Z,11.97
2019-03-31T20:31:52.579Z,11.91
2019-03-31T20:34:35.985Z,11.66
2019-03-31T20:37:26.793Z,11.62
2019-03-31T20:40:35.326Z,11.51
2019-03-31T20:43:24.791Z,11.37
2019-03-31T20:45:56.507Z,11.29
2019-03-31T20:48:27.077Z,11.20
2019-03-31T20:50:58.275Z,11.19
2019-03-31T20:53:28.874Z,11.25
2019-03-31T20:56:01.560Z,11.30
2019-03-31T20:58:51.403Z,11.32
2019-03-31T21:01:40.832Z,11.29
2019-03-31T21:04:30.556Z,11.32
2019-03-31T21:07:20.001Z,11.33
2019-03-31T21:09:51.495Z,11.30
2019-03-31T21:12:33.353Z,11.29
2019-03-31T21:15:14.966Z,11.20
2019-03-31T21:17:55.875Z,11.15
2019-03-31T21:20:41.153Z,11.13
2019-03-31T21:23:20.498Z,11.04
2019-03-31T21:26:14.511Z,10.15
2019-03-31T21:28:47.031Z,10.95
2019-03-31T21:31:39.299Z,10.99
2019-03-31T21:37:25.507Z,11.02
2019-03-31T21:40:15.483Z,10.95
2019-03-31T21:42:46.659Z,10.91
2019-03-31T21:45:18.294Z,10.94
2019-03-31T21:50:28.141Z,10.86
2019-03-31T21:52:59.890Z,10.76
2019-03-31T21:55:50.075Z,10.68
2019-03-31T21:58:40.949Z,10.62
2019-03-31T22:01:16.017Z,10.47
2019-03-31T22:07:08.627Z,10.37
2019-03-31T22:12:53.715Z,10.28
2019-03-31T22:15:43.410Z,10.20
2019-03-31T22:18:53.055Z,10.19
2019-03-31T22:21:45.763Z,10.22
2019-03-31T22:24:35.826Z,10.21
2019-03-31T22:27:06.873Z,10.07
2019-03-31T22:29:56.790Z,10.06
2019-03-31T22:32:38.959Z,9.98
2019-03-31T22:35:20.653Z,9.94
2019-03-31T22:41:10.545Z,9.83
2019-03-31T22:44:00.684Z,9.70
2019-03-31T22:46:54.540Z,9.40
2019-03-31T22:49:26.628Z,9.92
2019-03-31T22:52:00.895Z,9.75
2019-03-31T22:54:52.064Z,9.87
2019-03-31T22:57:42.319Z,9.71
2019-03-31T23:00:32.034Z,8.87
2019-03-31T23:03:21.615Z,9.56
2019-03-31T23:06:11.323Z,9.54
2019-03-31T23:09:00.936Z,9.37
2019-03-31T23:11:31.475Z,9.23
2019-03-31T23:14:14.218Z,9.08
2019-03-31T23:16:44.726Z,9.05
2019-03-31T23:19:15.387Z,9.02
2019-03-31T23:21:55.810Z,9.02
2019-03-31T23:24:45.566Z,9.05
2019-03-31T23:27:16.035Z,9.05
2019-03-31T23:30:07.818Z,8.99
2019-03-31T23:32:57.593Z,8.98
2019-03-31T23:35:54.352Z,8.87
2019-03-31T23:38:44.094Z,8.88
2019-03-31T23:41:14.689Z,8.90
2019-03-31T23:44:04.950Z,8.87
2019-03-31T23:46:35.597Z,8.94
2019-03-31T23:49:25.398Z,8.94
2019-03-31T23:52:15.333Z,8.98
2019-03-31T23:55:08.586Z,9.18
2019-03-31T23:57:40.241Z,9.35
